LFMNLFKF

Guest
Details From LFMN - Nice/Cote d'Azur
To LFKF - Figari Sud Corse
Flight Number -
Tags decoded
Created
Modified
Stats Distance 154 nm / 286 km
Max Altitude 0 ft / 0 m
Waypoints 6
Social Downloads 0
Likes 0
Share VATSIM

Download

Looking for another format? Having issues loading an existing format? Contact us
Advertisement - Login to hide

Notes

Requested: LFMN LONS5E LONSU UM622 AJO AJO1R LFKF Unmatched points: LONS5E AJO1R

Route

LFMN LONSU UM622 AJO LFKF

ID Type Via Altitude Latitude Longitude Leg Dist Tot Dist Heading (true) Name
O LFMN APT - 0 ft / 0 m 43.65798˚ 7.21536˚ - 0 nm - Nice/Cote d'Azur
LONSU FIX - 0 ft / 0 m 42.77694˚ 8.02389˚ 63 nm 63 nm 146° / 147° -
ABRON FIX UM622 (AWY-HI) 0 ft / 0 m 42.61417˚ 8.14778˚ 11 nm 74 nm 151° / 151° -
OMEDA FIX UM622 (AWY-HI) 0 ft / 0 m 42.32889˚ 8.36194˚ 19 nm 94 nm 151° / 151° -
AJO VOR UM622 (AWY-HI) 0 ft / 0 m 41.77053˚ 8.77467˚ 38 nm 132 nm 151° / 151° AJACCIO VOR-DME
O LFKF APT - 0 ft / 0 m 41.50206˚ 9.09696˚ 21 nm 154 nm 138° / 138° Figari Sud Corse

Altitude Profile

Advertisement - Login to hide

LFMN

Details ICAO LFMN (NCE)
Name Nice/Cote d'Azur
Region France
Timezone Unknown (UTC+0.0)
Stats Elevation 12 ft / 4 m (AMSL)
Location 43.657981° 7.215362°
Runways 2
Magnetic Variation 2.015° E

METAR

LFMN 120430Z 32004KT CAVOK 07/05 Q1005 NOSIG

Decode

TAF

TAF LFMN 120200Z 1203/1309 26012KT 9999 FEW010 BKN100 BECMG 1203/1205 SCT100 BECMG 1209/1210 22015KT TEMPO 1215/1216 20025KT

Decode

Departure Runways

ID Width Length Bearing (true) Bearing (mag) Surface Threshold Offset Overrun Length
04L 148 ft / 45 m 8,427 ft / 2,569 m 44.85° 42.83° Asphalt 0 ft / 0 m 131 ft / 40 m
04R 148 ft / 45 m 9,720 ft / 2,963 m 44.60° 42.58° Asphalt 0 ft / 0 m 427 ft / 130 m
22L 148 ft / 45 m 9,720 ft / 2,963 m 224.62° 222.60° Asphalt 0 ft / 0 m 525 ft / 160 m
22R 148 ft / 45 m 8,427 ft / 2,569 m 224.87° 222.85° Asphalt 0 ft / 0 m 492 ft / 150 m

LFKF

Details ICAO LFKF (FSC)
Name Figari Sud Corse
Region France
Timezone Europe/Paris (UTC+1.0)
Stats Elevation 87 ft / 27 m (AMSL)
Location 41.502064° 9.096960°
Runways 1
Magnetic Variation 2.377° E

METAR

LFKF 120430Z AUTO 25006KT 9999 -RA BKN074 OVC084 13/11 Q1007 TEMPO RA BKN020 FEW025TCU

Decode

TAF

TAF TAF LFKF 120200Z 1203/1303 25010G20KT 9999 BKN033 TEMPO 1203/1220 RA BKN020 FEW025TCU

Decode

Destination Runways

ID Width Length Bearing (true) Bearing (mag) Surface Threshold Offset Overrun Length
05 148 ft / 45 m 8,131 ft / 2,478 m 47.42° 45.04° Asphalt 0 ft / 0 m 0 ft / 0 m
23 148 ft / 45 m 8,131 ft / 2,478 m 227.44° 225.06° Asphalt 0 ft / 0 m 0 ft / 0 m

Approach Navaids

Runway Type Ident Frequency Range Bearing (true) Bearing (mag) Slope Elevation
23 Localiser GR 110.50 MHz 27 nm / 50 km 229.00° 226.62° - 87 ft / 27 m (AMSL)
23 Glidescope GR 110.50 MHz 27 nm / 50 km 229.00° 226.62° 3.50° 87 ft / 27 m (AMSL)
23 DME GR 110.50 MHz 18 nm / 33 km - - - 131 ft / 40 m (AMSL)

Popular Alternatives